Zeynalabdin Tagiyev — 9HLD8 — position and weather

sailwx.info

Track history (hours):
 
Tides and Currents Weather Stations Pressure Air Temp Water Temp Dewpoint Dewpoint Depression Visibility Wind Speed Wind Dir Waves Ship Positions

Zeynalabdin Tagiyev

Last reported at 2016-Jul-30 02:33 UTC. Time now 2016-Jul-30 16:54 UTC.
Position N 39°43' E 024°47'.

Length 140 m; draft 4.8 m.

Type: Cargo ship. MMSI: 256107000.

Date/timePositionNaut miles runAvg speedWind from/ knotsBaromVisibWave heightAir tempDewpointWater temp
2016-Jul-30 02:33N 39°43' E 024°47'9 9.3
2016-Jul-30 01:33N 39°52' E 024°44'10 9.3
2016-Jul-30 00:27N 40°01' E 024°39'8 9.1
2016-Jul-29 23:34N 40°09' E 024°36'10 9.5
2016-Jul-29 22:33N 40°18' E 024°32'10 9.8
2016-Jul-29 21:33N 40°27' E 024°28'10 9.9
2016-Jul-29 20:34N 40°37' E 024°24'1010.0
2016-Jul-29 19:34N 40°47' E 024°25'9 9.4
2016-Jul-29 18:34N 40°56' E 024°29'1 0.8
2016-Jul-29 17:32N 40°57' E 024°28'0 0.0
2016-Jul-29 16:32N 40°57' E 024°28'0 0.0
2016-Jul-29 15:32N 40°57' E 024°28'0 0.0
2016-Jul-29 14:32N 40°57' E 024°28'0 0.0
2016-Jul-29 13:32N 40°57' E 024°28'0 0.0
2016-Jul-29 12:32N 40°57' E 024°28'0 0.0
2016-Jul-29 11:32N 40°57' E 024°28'0 0.0
2016-Jul-29 10:32N 40°57' E 024°28'0 0.0
2016-Jul-29 09:32N 40°57' E 024°28'0 0.0
2016-Jul-29 08:31N 40°57' E 024°28'0 0.0
2016-Jul-29 07:31N 40°57' E 024°28'0 0.0
2016-Jul-29 06:31N 40°57' E 024°28'0 0.0
2016-Jul-29 05:31N 40°57' E 024°28'0 0.0
2016-Jul-29 04:31N 40°57' E 024°28'0 0.0
2016-Jul-29 03:31N 40°57' E 024°28'0 0.0
2016-Jul-29 02:31N 40°57' E 024°28'0 0.0
2016-Jul-29 01:33N 40°57' E 024°28'0 0.0
2016-Jul-29 00:30N 40°57' E 024°28'0 0.0
2016-Jul-28 23:30N 40°57' E 024°28'0 0.0
2016-Jul-28 22:33N 40°57' E 024°28'0 0.0
2016-Jul-28 21:33N 40°57' E 024°28'0 0.0
2016-Jul-28 20:31N 40°57' E 024°28'0 0.0
2016-Jul-28 19:31N 40°57' E 024°28'0 0.0
2016-Jul-28 18:33N 40°57' E 024°28'0 0.0
2016-Jul-28 17:32N 40°57' E 024°28'0 0.0
2016-Jul-28 16:33N 40°57' E 024°28'0 0.0
2016-Jul-28 15:33N 40°57' E 024°28'0 0.0
2016-Jul-28 14:33N 40°57' E 024°28'0 0.0
2016-Jul-28 13:33N 40°57' E 024°28'0 0.0
2016-Jul-28 12:33N 40°57' E 024°28'0 0.0
2016-Jul-28 11:33N 40°57' E 024°28'0 0.0
2016-Jul-28 10:33N 40°57' E 024°28'0 0.0
2016-Jul-28 09:28N 40°57' E 024°28'0 0.0
2016-Jul-28 08:31N 40°57' E 024°28'0 0.0
2016-Jul-28 07:31N 40°57' E 024°28'0 0.0
2016-Jul-28 06:31N 40°57' E 024°28'0 0.0
2016-Jul-28 05:32N 40°57' E 024°28'0 0.0
2016-Jul-28 04:30N 40°57' E 024°28'0 0.0
2016-Jul-28 03:32N 40°57' E 024°28'0 0.0
2016-Jul-28 02:32N 40°57' E 024°28'0 0.0
2016-Jul-28 01:33N 40°57' E 024°28'0 0.0
2016-Jul-28 00:33N 40°57' E 024°28'0 0.0
2016-Jul-27 23:33N 40°57' E 024°28'0 0.0
2016-Jul-27 22:32N 40°57' E 024°28'0 0.0
2016-Jul-27 21:32N 40°57' E 024°28'0 0.0
2016-Jul-27 20:32N 40°57' E 024°28'0 0.0
2016-Jul-27 19:29N 40°57' E 024°28'0 0.0
2016-Jul-27 18:31N 40°57' E 024°28'0 0.0
2016-Jul-27 17:32N 40°57' E 024°28'0 0.0
2016-Jul-27 16:33N 40°57' E 024°28'0 0.0
2016-Jul-27 15:33N 40°57' E 024°28'0 0.0
2016-Jul-27 14:33N 40°57' E 024°28'0 0.0
2016-Jul-27 13:33N 40°57' E 024°28'0 0.0
2016-Jul-27 12:31N 40°57' E 024°28'0 0.0
2016-Jul-27 11:31N 40°57' E 024°28'0 0.0
2016-Jul-27 10:31N 40°57' E 024°28'0 0.0
2016-Jul-27 09:31N 40°57' E 024°28'0 0.0
2016-Jul-27 08:31N 40°57' E 024°28'0 0.0
2016-Jul-27 07:31N 40°57' E 024°28'0 0.0
2016-Jul-27 06:31N 40°57' E 024°28'0 0.0
2016-Jul-27 05:31N 40°57' E 024°28'0 0.0
2016-Jul-27 04:33N 40°57' E 024°28'0 0.0
2016-Jul-27 03:31N 40°57' E 024°28'0 0.0
2016-Jul-27 02:31N 40°57' E 024°28'0 0.0
2016-Jul-27 01:31N 40°57' E 024°28'0 0.0
2016-Jul-27 00:31N 40°57' E 024°28'0 0.0
2016-Jul-26 23:30N 40°57' E 024°28'0 0.0
2016-Jul-26 22:31N 40°57' E 024°28'0 0.0
2016-Jul-26 21:31N 40°57' E 024°28'0 0.0
2016-Jul-26 20:30N 40°57' E 024°28'0 0.0
2016-Jul-26 19:33N 40°57' E 024°28'0 0.0
2016-Jul-26 18:28N 40°57' E 024°28'0 0.0
2016-Jul-26 17:31N 40°57' E 024°28'0 0.0
2016-Jul-26 16:32N 40°57' E 024°28'0 0.0
2016-Jul-26 15:32N 40°57' E 024°28'0 0.0
2016-Jul-26 14:33N 40°57' E 024°28'0 0.0
2016-Jul-26 13:33N 40°57' E 024°28'0 0.0
2016-Jul-26 12:30N 40°57' E 024°28'0 0.0
2016-Jul-26 11:32N 40°57' E 024°28'0 0.0
2016-Jul-26 05:31N 40°57' E 024°28'1 0.7
2016-Jul-26 04:34N 40°56' E 024°28'0 0.4
2016-Jul-26 03:33N 40°56' E 024°28'0 0.0
2016-Jul-26 02:30N 40°56' E 024°28'0 0.0
2016-Jul-26 01:33N 40°56' E 024°28'0 0.0
2016-Jul-26 00:30N 40°56' E 024°28'0 0.0
2016-Jul-25 23:30N 40°56' E 024°28'0 0.0
2016-Jul-25 22:33N 40°56' E 024°28'0 0.0
2016-Jul-25 21:33N 40°56' E 024°28'0 0.0
2016-Jul-25 20:32N 40°56' E 024°28'0 0.0
2016-Jul-25 19:26N 40°56' E 024°28'0 0.0
2016-Jul-25 18:33N 40°56' E 024°28'0 0.1
2016-Jul-25 17:33N 40°56' E 024°28'0 0.1
2016-Jul-25 16:33N 40°56' E 024°28'0 0.0
2016-Jul-25 15:25N 40°56' E 024°28'0 0.0
2016-Jul-25 14:33N 40°56' E 024°28'0 0.0
2016-Jul-25 13:31N 40°56' E 024°28'0 0.1
2016-Jul-25 12:31N 40°56' E 024°28'0 0.0
2016-Jul-25 11:32N 40°56' E 024°28'0 0.0
2016-Jul-25 10:29N 40°56' E 024°28'0 0.1
2016-Jul-25 09:32N 40°56' E 024°28'0 0.1
2016-Jul-25 08:32N 40°56' E 024°28'0 0.0
2016-Jul-25 07:32N 40°56' E 024°28'0 0.0
2016-Jul-25 06:29N 40°56' E 024°28'0 0.0
2016-Jul-25 05:30N 40°56' E 024°28'0 0.0
2016-Jul-25 04:31N 40°56' E 024°28'0 0.0
2016-Jul-25 03:31N 40°56' E 024°28'0 0.0
2016-Jul-25 02:33N 40°56' E 024°28'0 0.0
2016-Jul-25 01:30N 40°56' E 024°28'0 0.0
2016-Jul-25 00:31N 40°56' E 024°28'0 0.0
2016-Jul-24 23:26N 40°56' E 024°28'0 0.0
2016-Jul-24 22:32N 40°56' E 024°28'0 0.0
2016-Jul-24 21:32N 40°56' E 024°28'0 0.0
2016-Jul-24 20:32N 40°56' E 024°28'0 0.0
2016-Jul-24 19:32N 40°56' E 024°28'0 0.0
2016-Jul-24 18:28N 40°56' E 024°28'0 0.0
2016-Jul-24 17:33N 40°56' E 024°28'0 0.1
2016-Jul-24 16:33N 40°56' E 024°28'0 0.1
2016-Jul-24 15:32N 40°56' E 024°28'0 0.1
2016-Jul-24 14:32N 40°56' E 024°28'0 0.0
2016-Jul-24 13:32N 40°56' E 024°28'0 0.0
2016-Jul-24 12:33N 40°56' E 024°28'0 0.0
2016-Jul-24 11:29N 40°56' E 024°28'0 0.0
2016-Jul-24 10:33N 40°56' E 024°28'0 0.0
2016-Jul-24 09:30N 40°56' E 024°28'0 0.0
2016-Jul-24 08:33N 40°56' E 024°28'0 0.0
2016-Jul-24 07:32N 40°56' E 024°28'0 0.0
2016-Jul-24 06:29N 40°56' E 024°28'0 0.1
2016-Jul-24 05:33N 40°56' E 024°28'0 0.0
2016-Jul-24 04:31N 40°56' E 024°28'0 0.1
2016-Jul-24 03:31N 40°56' E 024°28'0 0.0
2016-Jul-24 02:33N 40°56' E 024°28'0 0.0
2016-Jul-24 01:30N 40°56' E 024°28'0 0.0
2016-Jul-24 00:30N 40°56' E 024°28'0 0.0
2016-Jul-23 23:33N 40°56' E 024°28'0 0.2
2016-Jul-23 22:30N 40°56' E 024°28'0 0.0
2016-Jul-23 21:33N 40°56' E 024°28'0 0.0
2016-Jul-23 20:32N 40°56' E 024°28'0 0.0
2016-Jul-23 19:29N 40°56' E 024°28'0 0.0
2016-Jul-23 18:29N 40°56' E 024°28'0 0.0
2016-Jul-23 17:32N 40°56' E 024°28'0 0.0
2016-Jul-23 16:31N 40°56' E 024°28'0 0.0
2016-Jul-23 15:33N 40°56' E 024°28'0 0.0
2016-Jul-23 14:31N 40°56' E 024°28'0 0.0
2016-Jul-23 13:31N 40°56' E 024°28'5 4.9
2016-Jul-23 12:33N 40°51' E 024°27'1010.2
2016-Jul-23 11:33N 40°41' E 024°24'10 9.9
2016-Jul-23 10:33N 40°32' E 024°30'1110.3
2016-Jul-23 09:31N 40°28' E 024°42'1110.8
2016-Jul-23 08:30N 40°23' E 024°55'1010.3
2016-Jul-23 07:33N 40°18' E 025°07'1110.7
2016-Jul-23 06:33N 40°13' E 025°19'164 7.4
2016-Jul-22 08:34N 37°32' E 025°55'  
Track history (hours):
 
Tides and Currents Weather Stations Pressure Air Temp Water Temp Dewpoint Dewpoint Depression Visibility Wind Speed Wind Dir Waves Ship Positions

Zeynalabdin Tagiyev

Last reported at 2016-Jul-30 02:33 UTC. Time now 2016-Jul-30 16:54 UTC.
Position N 39°43' E 024°47'.

Length 140 m; draft 4.8 m.

Type: Cargo ship. MMSI: 256107000.

Date/timePositionNaut miles runAvg speedWind from/ knotsBaromVisibWave heightAir tempDewpointWater temp
2016-Jul-30 02:33N 39°43' E 024°47'9 9.3
2016-Jul-30 01:33N 39°52' E 024°44'10 9.3
2016-Jul-30 00:27N 40°01' E 024°39'8 9.1
2016-Jul-29 23:34N 40°09' E 024°36'10 9.5
2016-Jul-29 22:33N 40°18' E 024°32'10 9.8
2016-Jul-29 21:33N 40°27' E 024°28'10 9.9
2016-Jul-29 20:34N 40°37' E 024°24'1010.0
2016-Jul-29 19:34N 40°47' E 024°25'9 9.4
2016-Jul-29 18:34N 40°56' E 024°29'1 0.8
2016-Jul-29 17:32N 40°57' E 024°28'0 0.0
2016-Jul-29 16:32N 40°57' E 024°28'0 0.0
2016-Jul-29 15:32N 40°57' E 024°28'0 0.0
2016-Jul-29 14:32N 40°57' E 024°28'0 0.0
2016-Jul-29 13:32N 40°57' E 024°28'0 0.0
2016-Jul-29 12:32N 40°57' E 024°28'0 0.0
2016-Jul-29 11:32N 40°57' E 024°28'0 0.0
2016-Jul-29 10:32N 40°57' E 024°28'0 0.0
2016-Jul-29 09:32N 40°57' E 024°28'0 0.0
2016-Jul-29 08:31N 40°57' E 024°28'0 0.0
2016-Jul-29 07:31N 40°57' E 024°28'0 0.0
2016-Jul-29 06:31N 40°57' E 024°28'0 0.0
2016-Jul-29 05:31N 40°57' E 024°28'0 0.0
2016-Jul-29 04:31N 40°57' E 024°28'0 0.0
2016-Jul-29 03:31N 40°57' E 024°28'0 0.0
2016-Jul-29 02:31N 40°57' E 024°28'0 0.0
2016-Jul-29 01:33N 40°57' E 024°28'0 0.0
2016-Jul-29 00:30N 40°57' E 024°28'0 0.0
2016-Jul-28 23:30N 40°57' E 024°28'0 0.0
2016-Jul-28 22:33N 40°57' E 024°28'0 0.0
2016-Jul-28 21:33N 40°57' E 024°28'0 0.0
2016-Jul-28 20:31N 40°57' E 024°28'0 0.0
2016-Jul-28 19:31N 40°57' E 024°28'0 0.0
2016-Jul-28 18:33N 40°57' E 024°28'0 0.0
2016-Jul-28 17:32N 40°57' E 024°28'0 0.0
2016-Jul-28 16:33N 40°57' E 024°28'0 0.0
2016-Jul-28 15:33N 40°57' E 024°28'0 0.0
2016-Jul-28 14:33N 40°57' E 024°28'0 0.0
2016-Jul-28 13:33N 40°57' E 024°28'0 0.0
2016-Jul-28 12:33N 40°57' E 024°28'0 0.0
2016-Jul-28 11:33N 40°57' E 024°28'0 0.0
2016-Jul-28 10:33N 40°57' E 024°28'0 0.0
2016-Jul-28 09:28N 40°57' E 024°28'0 0.0
2016-Jul-28 08:31N 40°57' E 024°28'0 0.0
2016-Jul-28 07:31N 40°57' E 024°28'0 0.0
2016-Jul-28 06:31N 40°57' E 024°28'0 0.0
2016-Jul-28 05:32N 40°57' E 024°28'0 0.0
2016-Jul-28 04:30N 40°57' E 024°28'0 0.0
2016-Jul-28 03:32N 40°57' E 024°28'0 0.0
2016-Jul-28 02:32N 40°57' E 024°28'0 0.0
2016-Jul-28 01:33N 40°57' E 024°28'0 0.0
2016-Jul-28 00:33N 40°57' E 024°28'0 0.0
2016-Jul-27 23:33N 40°57' E 024°28'0 0.0
2016-Jul-27 22:32N 40°57' E 024°28'0 0.0
2016-Jul-27 21:32N 40°57' E 024°28'0 0.0
2016-Jul-27 20:32N 40°57' E 024°28'0 0.0
2016-Jul-27 19:29N 40°57' E 024°28'0 0.0
2016-Jul-27 18:31N 40°57' E 024°28'0 0.0
2016-Jul-27 17:32N 40°57' E 024°28'0 0.0
2016-Jul-27 16:33N 40°57' E 024°28'0 0.0
2016-Jul-27 15:33N 40°57' E 024°28'0 0.0
2016-Jul-27 14:33N 40°57' E 024°28'0 0.0
2016-Jul-27 13:33N 40°57' E 024°28'0 0.0
2016-Jul-27 12:31N 40°57' E 024°28'0 0.0
2016-Jul-27 11:31N 40°57' E 024°28'0 0.0
2016-Jul-27 10:31N 40°57' E 024°28'0 0.0
2016-Jul-27 09:31N 40°57' E 024°28'0 0.0
2016-Jul-27 08:31N 40°57' E 024°28'0 0.0
2016-Jul-27 07:31N 40°57' E 024°28'0 0.0
2016-Jul-27 06:31N 40°57' E 024°28'0 0.0
2016-Jul-27 05:31N 40°57' E 024°28'0 0.0
2016-Jul-27 04:33N 40°57' E 024°28'0 0.0
2016-Jul-27 03:31N 40°57' E 024°28'0 0.0
2016-Jul-27 02:31N 40°57' E 024°28'0 0.0
2016-Jul-27 01:31N 40°57' E 024°28'0 0.0
2016-Jul-27 00:31N 40°57' E 024°28'0 0.0
2016-Jul-26 23:30N 40°57' E 024°28'0 0.0
2016-Jul-26 22:31N 40°57' E 024°28'0 0.0
2016-Jul-26 21:31N 40°57' E 024°28'0 0.0
2016-Jul-26 20:30N 40°57' E 024°28'0 0.0
2016-Jul-26 19:33N 40°57' E 024°28'0 0.0
2016-Jul-26 18:28N 40°57' E 024°28'0 0.0
2016-Jul-26 17:31N 40°57' E 024°28'0 0.0
2016-Jul-26 16:32N 40°57' E 024°28'0 0.0
2016-Jul-26 15:32N 40°57' E 024°28'0 0.0
2016-Jul-26 14:33N 40°57' E 024°28'0 0.0
2016-Jul-26 13:33N 40°57' E 024°28'0 0.0
2016-Jul-26 12:30N 40°57' E 024°28'0 0.0
2016-Jul-26 11:32N 40°57' E 024°28'0 0.0
2016-Jul-26 05:31N 40°57' E 024°28'1 0.7
2016-Jul-26 04:34N 40°56' E 024°28'0 0.4
2016-Jul-26 03:33N 40°56' E 024°28'0 0.0
2016-Jul-26 02:30N 40°56' E 024°28'0 0.0
2016-Jul-26 01:33N 40°56' E 024°28'0 0.0
2016-Jul-26 00:30N 40°56' E 024°28'0 0.0
2016-Jul-25 23:30N 40°56' E 024°28'0 0.0
2016-Jul-25 22:33N 40°56' E 024°28'0 0.0
2016-Jul-25 21:33N 40°56' E 024°28'0 0.0
2016-Jul-25 20:32N 40°56' E 024°28'0 0.0
2016-Jul-25 19:26N 40°56' E 024°28'0 0.0
2016-Jul-25 18:33N 40°56' E 024°28'0 0.1
2016-Jul-25 17:33N 40°56' E 024°28'0 0.1
2016-Jul-25 16:33N 40°56' E 024°28'0 0.0
2016-Jul-25 15:25N 40°56' E 024°28'0 0.0
2016-Jul-25 14:33N 40°56' E 024°28'0 0.0
2016-Jul-25 13:31N 40°56' E 024°28'0 0.1
2016-Jul-25 12:31N 40°56' E 024°28'0 0.0
2016-Jul-25 11:32N 40°56' E 024°28'0 0.0
2016-Jul-25 10:29N 40°56' E 024°28'0 0.1
2016-Jul-25 09:32N 40°56' E 024°28'0 0.1
2016-Jul-25 08:32N 40°56' E 024°28'0 0.0
2016-Jul-25 07:32N 40°56' E 024°28'0 0.0
2016-Jul-25 06:29N 40°56' E 024°28'0 0.0
2016-Jul-25 05:30N 40°56' E 024°28'0 0.0
2016-Jul-25 04:31N 40°56' E 024°28'0 0.0
2016-Jul-25 03:31N 40°56' E 024°28'0 0.0
2016-Jul-25 02:33N 40°56' E 024°28'0 0.0
2016-Jul-25 01:30N 40°56' E 024°28'0 0.0
2016-Jul-25 00:31N 40°56' E 024°28'0 0.0
2016-Jul-24 23:26N 40°56' E 024°28'0 0.0
2016-Jul-24 22:32N 40°56' E 024°28'0 0.0
2016-Jul-24 21:32N 40°56' E 024°28'0 0.0
2016-Jul-24 20:32N 40°56' E 024°28'0 0.0
2016-Jul-24 19:32N 40°56' E 024°28'0 0.0
2016-Jul-24 18:28N 40°56' E 024°28'0 0.0
2016-Jul-24 17:33N 40°56' E 024°28'0 0.1
2016-Jul-24 16:33N 40°56' E 024°28'0 0.1
2016-Jul-24 15:32N 40°56' E 024°28'0 0.1
2016-Jul-24 14:32N 40°56' E 024°28'0 0.0
2016-Jul-24 13:32N 40°56' E 024°28'0 0.0
2016-Jul-24 12:33N 40°56' E 024°28'0 0.0
2016-Jul-24 11:29N 40°56' E 024°28'0 0.0
2016-Jul-24 10:33N 40°56' E 024°28'0 0.0
2016-Jul-24 09:30N 40°56' E 024°28'0 0.0
2016-Jul-24 08:33N 40°56' E 024°28'0 0.0
2016-Jul-24 07:32N 40°56' E 024°28'0 0.0
2016-Jul-24 06:29N 40°56' E 024°28'0 0.1
2016-Jul-24 05:33N 40°56' E 024°28'0 0.0
2016-Jul-24 04:31N 40°56' E 024°28'0 0.1
2016-Jul-24 03:31N 40°56' E 024°28'0 0.0
2016-Jul-24 02:33N 40°56' E 024°28'0 0.0
2016-Jul-24 01:30N 40°56' E 024°28'0 0.0
2016-Jul-24 00:30N 40°56' E 024°28'0 0.0
2016-Jul-23 23:33N 40°56' E 024°28'0 0.2
2016-Jul-23 22:30N 40°56' E 024°28'0 0.0
2016-Jul-23 21:33N 40°56' E 024°28'0 0.0
2016-Jul-23 20:32N 40°56' E 024°28'0 0.0
2016-Jul-23 19:29N 40°56' E 024°28'0 0.0
2016-Jul-23 18:29N 40°56' E 024°28'0 0.0
2016-Jul-23 17:32N 40°56' E 024°28'0 0.0
2016-Jul-23 16:31N 40°56' E 024°28'0 0.0
2016-Jul-23 15:33N 40°56' E 024°28'0 0.0
2016-Jul-23 14:31N 40°56' E 024°28'0 0.0
2016-Jul-23 13:31N 40°56' E 024°28'5 4.9
2016-Jul-23 12:33N 40°51' E 024°27'1010.2
2016-Jul-23 11:33N 40°41' E 024°24'10 9.9
2016-Jul-23 10:33N 40°32' E 024°30'1110.3
2016-Jul-23 09:31N 40°28' E 024°42'1110.8
2016-Jul-23 08:30N 40°23' E 024°55'1010.3
2016-Jul-23 07:33N 40°18' E 025°07'1110.7
2016-Jul-23 06:33N 40°13' E 025°19'164 7.4
2016-Jul-22 08:34N 37°32' E 025°55'  

Dump ship's entire track history